Time;durP1;ratioP1;P1;durP2;ratioP2;P2;SDS_P1;SDS_P2;PMS_P1;PMS_P2;Temp;Humidity;BMP_temperature;BMP_pressure;BME280_temperature;BME280_humidity;BME280_pressure;Samples;Min_cycle;Max_cycle;Signal;HPM_P1;HPM_P2
2023/02/02 00:03:14;;;;;;;9.43;2.37;;;;;8.00;101815.00;;;;10088557;29;20208;-79
2023/02/02 00:08:18;;;;;;;13.33;3.27;;;;;8.00;101837.00;;;;10104132;29;20355;-79
2023/02/02 00:13:19;;;;;;;13.63;2.97;;;;;8.00;101830.00;;;;10095688;29;20231;-80
2023/02/02 00:18:21;;;;;;;12.90;3.17;;;;;8.00;101828.00;;;;10090692;29;20211;-79
2023/02/02 00:23:23;;;;;;;13.80;2.53;;;;;8.00;101842.00;;;;10036532;29;20247;-78
2023/02/02 00:28:25;;;;;;;14.57;3.53;;;;;8.10;101832.00;;;;10105898;29;20204;-79
2023/02/02 00:33:27;;;;;;;17.03;2.80;;;;;8.10;101829.00;;;;10095114;29;20234;-79
2023/02/02 00:38:29;;;;;;;16.37;3.07;;;;;8.10;101827.00;;;;10047169;29;20195;-79
2023/02/02 00:43:33;;;;;;;15.10;3.00;;;;;8.10;101825.00;;;;10064543;29;20653;-79
2023/02/02 00:48:34;;;;;;;14.80;2.93;;;;;8.10;101829.00;;;;10095429;29;20208;-79
2023/02/02 00:53:36;;;;;;;9.47;2.37;;;;;8.10;101825.00;;;;10062212;29;20215;-79
2023/02/02 00:58:38;;;;;;;15.37;3.30;;;;;8.10;101822.00;;;;10094682;29;20714;-79
2023/02/02 01:03:41;;;;;;;18.87;2.90;;;;;8.10;101823.00;;;;10099064;29;20203;-79
2023/02/02 01:08:43;;;;;;;10.37;2.53;;;;;8.10;101825.00;;;;10095056;29;20302;-79
2023/02/02 01:13:44;;;;;;;14.77;2.97;;;;;8.10;101821.00;;;;10092243;29;20631;-80
2023/02/02 01:18:47;;;;;;;10.73;2.37;;;;;8.10;101796.00;;;;10092399;29;20730;-79
2023/02/02 01:23:49;;;;;;;10.30;3.00;;;;;8.10;101826.00;;;;10094147;29;20219;-78
2023/02/02 01:28:51;;;;;;;8.93;2.67;;;;;8.10;101828.00;;;;10078496;29;20248;-79
2023/02/02 01:33:54;;;;;;;10.63;2.47;;;;;8.00;101832.00;;;;10063150;29;20223;-79
2023/02/02 01:38:56;;;;;;;11.53;3.03;;;;;8.00;101825.00;;;;10094095;29;20204;-78
2023/02/02 01:44:04;;;;;;;19.17;4.47;;;;;8.00;101840.00;;;;10100724;29;20220;-79
2023/02/02 01:49:13;;;;;;;7.80;2.30;;;;;8.00;101842.00;;;;10116132;29;20223;-78
2023/02/02 01:54:21;;;;;;;16.03;3.20;;;;;8.00;101846.00;;;;10083663;29;20231;-79
2023/02/02 01:59:25;;;;;;;9.63;2.97;;;;;8.00;101837.00;;;;10092561;29;20208;-80
2023/02/02 02:04:30;;;;;;;17.80;3.93;;;;;8.00;101835.00;;;;10089389;29;20215;-80
2023/02/02 02:09:33;;;;;;;15.17;2.50;;;;;8.00;101841.00;;;;10076440;29;20255;-80
2023/02/02 02:26:34;;;;;;;11.00;2.60;;;;;8.00;101847.00;;;;10090837;29;20271;-80
2023/02/02 02:32:00;;;;;;;17.43;2.70;;;;;7.90;101839.00;;;;10098947;29;20603;-79
2023/02/02 02:37:21;;;;;;;14.37;2.70;;;;;7.90;101843.00;;;;10096609;29;20705;-79
2023/02/02 02:42:27;;;;;;;12.47;2.70;;;;;8.00;101838.00;;;;10099741;29;20211;-80
2023/02/02 02:47:31;;;;;;;18.80;2.80;;;;;8.00;101833.00;;;;10113946;29;20215;-79
2023/02/02 02:52:34;;;;;;;10.83;2.63;;;;;8.00;101841.00;;;;10082175;29;20251;-79
2023/02/02 02:57:54;;;;;;;8.70;2.30;;;;;8.00;101849.00;;;;10123156;29;20208;-79
2023/02/02 03:03:25;;;;;;;8.40;2.33;;;;;7.90;101844.00;;;;10085469;29;20262;-79
2023/02/02 03:08:56;;;;;;;17.90;2.47;;;;;8.00;101861.00;;;;10109721;29;20223;-80
2023/02/02 03:14:00;;;;;;;11.27;2.70;;;;;7.90;101841.00;;;;10081765;29;20310;-79
2023/02/02 03:19:03;;;;;;;12.63;2.67;;;;;7.90;101843.00;;;;10082878;29;20218;-79
2023/02/02 03:24:06;;;;;;;12.37;2.70;;;;;7.90;101852.00;;;;10113827;29;20239;-79
2023/02/02 03:29:08;;;;;;;11.10;2.70;;;;;7.90;101857.00;;;;10092396;29;20302;-79
2023/02/02 03:34:10;;;;;;;11.20;2.90;;;;;7.90;101837.00;;;;10081756;29;20231;-79
2023/02/02 03:39:12;;;;;;;12.50;2.67;;;;;7.90;101852.00;;;;10112269;29;20214;-80
2023/02/02 03:44:13;;;;;;;10.33;2.50;;;;;7.90;101864.00;;;;10081948;29;20612;-79
2023/02/02 03:49:16;;;;;;;10.73;1.93;;;;;8.00;101870.00;;;;10103545;29;20302;-79
2023/02/02 03:54:18;;;;;;;10.87;2.43;;;;;7.90;101845.00;;;;10111772;29;20223;-81
2023/02/02 03:59:19;;;;;;;14.90;2.77;;;;;7.90;101855.00;;;;10112121;29;20210;-79
2023/02/02 04:04:21;;;;;;;9.43;2.90;;;;;8.00;101869.00;;;;10110573;29;20750;-80
2023/02/02 04:09:24;;;;;;;11.67;2.30;;;;;8.00;101870.00;;;;10112558;29;20227;-79
2023/02/02 04:14:26;;;;;;;14.27;3.23;;;;;8.00;101878.00;;;;10066111;29;20220;-80
2023/02/02 04:19:28;;;;;;;7.57;2.53;;;;;8.00;101885.00;;;;10081036;29;20207;-81
2023/02/02 04:24:30;;;;;;;7.13;1.93;;;;;7.90;101889.00;;;;10069442;29;20200;-79
2023/02/02 04:29:32;;;;;;;9.80;2.50;;;;;7.90;101891.00;;;;10110445;29;20203;-80
2023/02/02 04:34:33;;;;;;;6.97;2.10;;;;;8.00;101894.00;;;;10066127;29;20291;-79
2023/02/02 04:39:36;;;;;;;11.87;2.73;;;;;8.00;101890.00;;;;10111558;29;20507;-81
2023/02/02 04:44:38;;;;;;;10.53;3.70;;;;;8.00;101907.00;;;;10074520;29;20297;-80
2023/02/02 04:49:40;;;;;;;9.37;2.17;;;;;7.90;101907.00;;;;10078808;29;20662;-80
2023/02/02 04:54:42;;;;;;;8.73;2.73;;;;;7.90;101912.00;;;;10065550;29;20219;-79
2023/02/02 04:59:44;;;;;;;6.87;2.40;;;;;7.90;101903.00;;;;10095714;29;20202;-79
2023/02/02 05:04:46;;;;;;;9.23;2.03;;;;;7.90;101907.00;;;;10095595;29;20707;-80
2023/02/02 05:09:48;;;;;;;8.63;1.90;;;;;7.90;101893.00;;;;10103015;29;20223;-80
2023/02/02 05:14:50;;;;;;;14.57;3.30;;;;;7.90;101890.00;;;;10093357;29;20231;-81
2023/02/02 05:19:52;;;;;;;14.07;2.70;;;;;7.90;101892.00;;;;10088202;29;20646;-80
2023/02/02 05:24:54;;;;;;;5.67;1.73;;;;;7.90;101904.00;;;;10100894;29;20207;-80
2023/02/02 05:29:56;;;;;;;6.53;1.90;;;;;7.90;101897.00;;;;10112572;29;20204;-80
2023/02/02 05:34:58;;;;;;;11.57;2.30;;;;;7.80;101903.00;;;;10105626;29;20276;-80
2023/02/02 05:40:00;;;;;;;11.47;2.30;;;;;7.80;101890.00;;;;10100007;29;20207;-79
2023/02/02 05:45:03;;;;;;;9.40;2.07;;;;;7.80;101895.00;;;;10104612;29;20754;-80
2023/02/02 05:50:05;;;;;;;7.73;2.63;;;;;7.70;101905.00;;;;10083803;29;20502;-80
2023/02/02 05:55:08;;;;;;;10.87;1.93;;;;;7.70;101906.00;;;;10073789;29;20227;-80
2023/02/02 06:00:11;;;;;;;12.90;2.13;;;;;7.60;101907.00;;;;10087068;29;20222;-79
2023/02/02 06:05:13;;;;;;;8.93;2.23;;;;;7.50;101915.00;;;;10109512;29;20730;-80
2023/02/02 06:10:15;;;;;;;8.40;2.67;;;;;7.50;101919.00;;;;10101880;29;20231;-80
2023/02/02 06:15:17;;;;;;;10.60;2.23;;;;;7.40;101915.00;;;;10074153;29;20224;-79
2023/02/02 06:20:19;;;;;;;15.40;2.37;;;;;7.40;101917.00;;;;10058816;29;20196;-80
2023/02/02 06:25:23;;;;;;;10.50;2.23;;;;;7.40;101921.00;;;;10095252;29;20207;-79
2023/02/02 06:30:27;;;;;;;13.53;2.50;;;;;7.40;101920.00;;;;10099010;29;20242;-80
2023/02/02 06:35:28;;;;;;;5.33;1.90;;;;;7.40;101923.00;;;;10124469;29;20207;-79
2023/02/02 06:40:30;;;;;;;10.43;2.97;;;;;7.40;101926.00;;;;10105331;29;20225;-79
2023/02/02 06:45:32;;;;;;;9.00;2.10;;;;;7.40;101927.00;;;;10104497;29;20239;-79
2023/02/02 06:50:34;;;;;;;11.57;1.90;;;;;7.40;101925.00;;;;10074161;29;20228;-80
2023/02/02 06:55:36;;;;;;;10.53;2.87;;;;;7.40;101932.00;;;;10068606;29;20204;-79
2023/02/02 07:00:38;;;;;;;11.30;2.60;;;;;7.50;101946.00;;;;10092392;29;20207;-80
2023/02/02 07:05:40;;;;;;;18.77;2.60;;;;;7.50;101950.00;;;;10091455;29;20220;-80
2023/02/02 07:10:43;;;;;;;8.17;2.57;;;;;7.50;101956.00;;;;10102160;29;20224;-80
2023/02/02 07:16:08;;;;;;;9.00;2.13;;;;;7.50;101951.00;;;;10065670;29;20210;-80
2023/02/02 07:21:21;;;;;;;10.87;3.10;;;;;7.60;101973.00;;;;10084797;29;20206;-79
2023/02/02 07:26:23;;;;;;;12.30;2.87;;;;;7.60;101974.00;;;;10070494;29;20227;-80
2023/02/02 07:31:26;;;;;;;9.90;1.93;;;;;7.60;101962.00;;;;10067103;29;20222;-79
2023/02/02 07:36:28;;;;;;;9.17;2.53;;;;;7.60;101976.00;;;;10096252;29;20235;-80
2023/02/02 07:41:32;;;;;;;12.97;2.37;;;;;7.60;101966.00;;;;10098876;29;20879;-79
2023/02/02 07:46:34;;;;;;;10.73;2.90;;;;;7.60;101975.00;;;;10096560;29;20204;-81
2023/02/02 07:51:37;;;;;;;8.40;1.73;;;;;7.60;101972.00;;;;10098444;29;20318;-80
2023/02/02 07:56:43;;;;;;;7.50;2.27;;;;;7.70;101969.00;;;;10067693;29;20215;-80
2023/02/02 08:01:45;;;;;;;9.30;2.37;;;;;7.70;101982.00;;;;10082771;29;20750;-80
2023/02/02 08:06:47;;;;;;;10.67;2.67;;;;;7.80;101968.00;;;;10096439;29;20318;-79
2023/02/02 08:11:49;;;;;;;13.53;2.27;;;;;8.00;101977.00;;;;10097026;29;20567;-79
2023/02/02 08:16:51;;;;;;;8.50;2.07;;;;;8.10;101973.00;;;;10096516;29;20267;-80
2023/02/02 08:21:53;;;;;;;5.73;1.90;;;;;8.20;101971.00;;;;10083988;29;20216;-80
2023/02/02 08:26:54;;;;;;;7.27;1.97;;;;;8.40;101974.00;;;;10096867;29;20233;-80
2023/02/02 08:31:57;;;;;;;9.40;1.57;;;;;8.60;101976.00;;;;10082105;29;20241;-81
2023/02/02 08:36:59;;;;;;;7.73;2.20;;;;;9.00;101987.00;;;;10096938;29;20203;-81
2023/02/02 08:42:01;;;;;;;7.43;2.27;;;;;9.10;101993.00;;;;10081938;29;20306;-80
2023/02/02 08:47:03;;;;;;;4.07;1.67;;;;;9.00;102011.00;;;;10124350;29;20279;-80
2023/02/02 08:52:05;;;;;;;9.67;2.07;;;;;8.80;102012.00;;;;10132615;29;20230;-81
2023/02/02 08:57:07;;;;;;;13.13;2.50;;;;;9.00;102009.00;;;;10132795;29;20202;-80
2023/02/02 09:02:12;;;;;;;11.03;3.00;;;;;9.30;102020.00;;;;10164490;29;20277;-81
2023/02/02 09:07:14;;;;;;;9.83;2.27;;;;;9.30;102026.00;;;;10106049;29;20230;-80
2023/02/02 09:12:16;;;;;;;7.80;2.57;;;;;9.50;102050.00;;;;10139520;29;20253;-80
2023/02/02 09:17:18;;;;;;;7.83;2.20;;;;;9.50;102053.00;;;;10108372;29;20295;-80
2023/02/02 09:22:20;;;;;;;9.60;2.10;;;;;9.70;102050.00;;;;10093265;29;20456;-80
2023/02/02 09:27:22;;;;;;;8.10;3.17;;;;;9.80;102064.00;;;;10097812;29;20223;-80
2023/02/02 09:32:24;;;;;;;8.33;2.07;;;;;9.80;102072.00;;;;10077566;29;20231;-81
2023/02/02 09:37:26;;;;;;;6.97;2.00;;;;;9.70;102071.00;;;;10109240;29;20208;-80
2023/02/02 09:42:51;;;;;;;6.93;1.67;;;;;9.90;102079.00;;;;10094094;29;20239;-81
2023/02/02 09:48:00;;;;;;;11.23;2.17;;;;;10.10;102088.00;;;;10114006;29;20211;-78
2023/02/02 09:53:27;;;;;;;8.73;2.10;;;;;10.20;102105.00;;;;10107643;29;20403;-80
2023/02/02 09:58:50;;;;;;;7.13;2.23;;;;;10.60;102096.00;;;;10107329;29;20231;-80
2023/02/02 10:04:13;;;;;;;7.93;1.67;;;;;11.40;102096.00;;;;10101569;29;20218;-80
2023/02/02 10:09:25;;;;;;;10.57;1.80;;;;;11.20;102100.00;;;;10118584;29;20235;-80
2023/02/02 10:14:40;;;;;;;12.57;2.00;;;;;10.90;102095.00;;;;10123129;29;20254;-80
2023/02/02 10:19:45;;;;;;;8.13;1.70;;;;;11.50;102104.00;;;;10122476;29;20782;-80
2023/02/02 10:24:47;;;;;;;8.17;2.13;;;;;11.60;102114.00;;;;10102477;29;20218;-81
2023/02/02 10:29:58;;;;;;;5.93;2.00;;;;;11.50;102125.00;;;;10101497;29;20681;-80
2023/02/02 10:35:18;;;;;;;8.33;1.90;;;;;11.50;102129.00;;;;10073133;29;20595;-80
2023/02/02 10:40:39;;;;;;;8.77;1.93;;;;;11.60;102130.00;;;;10134479;29;20218;-81
2023/02/02 10:45:42;;;;;;;6.97;2.53;;;;;11.80;102137.00;;;;10107898;29;20251;-80
2023/02/02 10:50:49;;;;;;;6.83;2.07;;;;;12.00;102121.00;;;;10074651;29;20211;-80
2023/02/02 10:56:20;;;;;;;10.93;2.10;;;;;12.40;102136.00;;;;10100165;29;20224;-80
2023/02/02 11:01:22;;;;;;;8.87;1.70;;;;;13.50;102133.00;;;;10100070;29;20282;-80
2023/02/02 11:11:50;;;;;;;10.93;2.43;;;;;14.10;102130.00;;;;10100140;29;20710;-81
2023/02/02 11:17:04;;;;;;;8.20;1.80;;;;;13.80;102134.00;;;;10115664;29;20646;-81
2023/02/02 11:22:24;;;;;;;12.97;2.60;;;;;13.20;102136.00;;;;10092778;29;20607;-80
2023/02/02 11:27:31;;;;;;;5.87;1.90;;;;;13.30;102126.00;;;;10115864;29;20271;-80
2023/02/02 11:32:33;;;;;;;6.63;2.30;;;;;12.60;102119.00;;;;10099545;29;20274;-80
2023/02/02 11:38:12;;;;;;;5.13;1.90;;;;;12.40;102120.00;;;;10113698;29;20248;-80
2023/02/02 11:43:24;;;;;;;7.17;1.90;;;;;13.20;102115.00;;;;10110568;29;20207;-81
2023/02/02 11:48:34;;;;;;;8.23;2.00;;;;;13.30;102116.00;;;;10137182;29;20306;-81
2023/02/02 11:53:47;;;;;;;8.17;1.70;;;;;13.80;102112.00;;;;10138280;29;20219;-81
2023/02/02 11:58:52;;;;;;;4.90;1.67;;;;;13.40;102116.00;;;;10123318;29;20222;-82
2023/02/02 12:04:00;;;;;;;3.80;1.53;;;;;12.70;102117.00;;;;10101882;29;20212;-81
2023/02/02 12:09:11;;;;;;;8.03;1.80;;;;;12.00;102116.00;;;;10097641;29;20577;-81
2023/02/02 12:14:49;;;;;;;8.43;2.57;;;;;12.80;102096.00;;;;10093045;29;20219;-81
2023/02/02 12:20:09;;;;;;;7.67;2.37;;;;;14.10;102082.00;;;;10054389;29;20206;-81
2023/02/02 12:25:41;;;;;;;7.43;2.07;;;;;13.90;102111.00;;;;10058548;29;20207;-81
2023/02/02 12:31:21;;;;;;;6.00;1.83;;;;;14.00;102099.00;;;;10041386;29;20207;-81
2023/02/02 12:36:42;;;;;;;7.90;1.67;;;;;13.70;102106.00;;;;10097003;29;20211;-80
2023/02/02 12:42:21;;;;;;;5.57;1.90;;;;;13.60;102102.00;;;;10096999;29;20270;-82
2023/02/02 12:47:41;;;;;;;6.67;2.23;;;;;13.10;102093.00;;;;10098915;29;20311;-82
2023/02/02 12:53:05;;;;;;;5.97;2.20;;;;;12.90;102080.00;;;;10127672;29;20215;-82
2023/02/02 12:58:25;;;;;;;3.87;2.13;;;;;12.60;102077.00;;;;10127350;29;20199;-81
2023/02/02 13:03:48;;;;;;;6.20;2.20;;;;;12.20;102081.00;;;;10113402;29;20596;-80
2023/02/02 13:09:12;;;;;;;7.63;2.17;;;;;12.10;102087.00;;;;10091318;29;20243;-80
2023/02/02 13:14:19;;;;;;;3.63;2.13;;;;;12.30;102076.00;;;;10127363;29;20721;-81
2023/02/02 13:19:27;;;;;;;5.87;1.77;;;;;12.40;102081.00;;;;10097590;29;20566;-81
2023/02/02 13:24:31;;;;;;;5.87;1.90;;;;;12.30;102072.00;;;;10066855;29;20200;-80
2023/02/02 13:29:58;;;;;;;4.70;1.73;;;;;12.60;102076.00;;;;10066095;29;20208;-81
2023/02/02 13:35:12;;;;;;;6.73;1.70;;;;;13.30;102063.00;;;;10080823;29;20318;-81
2023/02/02 13:40:17;;;;;;;2.73;1.63;;;;;13.20;102069.00;;;;10103785;29;20240;-81
2023/02/02 13:45:43;;;;;;;8.77;2.17;;;;;12.50;102071.00;;;;10104438;29;20279;-81
2023/02/02 13:50:54;;;;;;;5.33;1.83;;;;;11.90;102074.00;;;;10077658;29;20656;-80
2023/02/02 13:56:20;;;;;;;9.43;2.33;;;;;12.40;102070.00;;;;10103686;29;20816;-81
2023/02/02 14:01:23;;;;;;;6.63;1.80;;;;;12.30;102055.00;;;;10093978;29;20723;-82
2023/02/02 14:06:27;;;;;;;8.40;1.80;;;;;12.50;102047.00;;;;10118357;29;20977;-80
2023/02/02 14:11:45;;;;;;;5.10;1.73;;;;;12.00;102053.00;;;;10118672;29;20192;-80
2023/02/02 14:16:50;;;;;;;3.63;2.00;;;;;11.70;102043.00;;;;10093144;29;20242;-81
2023/02/02 14:22:07;;;;;;;4.67;1.40;;;;;11.60;102063.00;;;;10118745;29;20203;-81
2023/02/02 14:27:09;;;;;;;8.17;2.00;;;;;11.30;102061.00;;;;10072675;29;20207;-81
2023/02/02 14:32:24;;;;;;;3.03;1.70;;;;;11.10;102060.00;;;;10072363;29;20226;-81
2023/02/02 14:37:30;;;;;;;4.70;1.77;;;;;10.90;102081.00;;;;10086464;29;20264;-81
2023/02/02 14:48:23;;;;;;;6.07;2.00;;;;;10.20;102091.00;;;;10105241;29;20675;-80
2023/02/02 14:53:46;;;;;;;8.73;2.63;;;;;9.90;102108.00;;;;10071834;29;20223;-80
2023/02/02 14:58:59;;;;;;;5.03;2.17;;;;;9.70;102106.00;;;;10102434;29;20230;-80
2023/02/02 15:04:23;;;;;;;5.57;2.40;;;;;9.60;102115.00;;;;10101095;29;20263;-80
2023/02/02 15:09:35;;;;;;;7.90;1.97;;;;;9.60;102114.00;;;;10099405;29;20455;-79
2023/02/02 15:14:43;;;;;;;8.50;3.57;;;;;9.60;102115.00;;;;10125006;29;20215;-79
2023/02/02 15:19:50;;;;;;;6.80;2.37;;;;;9.50;102120.00;;;;10120858;29;20623;-79
2023/02/02 15:24:53;;;;;;;7.33;2.53;;;;;9.40;102121.00;;;;10115971;29;20603;-80
2023/02/02 15:30:01;;;;;;;5.13;2.43;;;;;9.40;102121.00;;;;10085989;29;20200;-79
2023/02/02 15:35:09;;;;;;;8.13;3.03;;;;;9.60;102135.00;;;;10101296;29;20234;-79
2023/02/02 15:40:15;;;;;;;7.97;2.57;;;;;9.60;102132.00;;;;10101371;29;20223;-79
2023/02/02 15:45:52;;;;;;;9.63;2.37;;;;;9.60;102133.00;;;;10129643;29;20210;-80
2023/02/02 15:50:58;;;;;;;6.03;2.43;;;;;9.60;102146.00;;;;10127129;29;20275;-79
2023/02/02 15:56:21;;;;;;;8.47;2.70;;;;;9.60;102141.00;;;;10115032;29;20587;-79
2023/02/02 16:01:26;;;;;;;9.60;2.90;;;;;9.50;102146.00;;;;10082958;29;20211;-80
2023/02/02 16:06:28;;;;;;;6.17;2.23;;;;;9.50;102148.00;;;;10113825;29;20259;-79
2023/02/02 16:11:31;;;;;;;8.90;2.53;;;;;9.40;102149.00;;;;10098969;29;20199;-79
2023/02/02 16:16:36;;;;;;;5.20;2.37;;;;;9.40;102140.00;;;;10133531;29;20231;-80
2023/02/02 16:21:44;;;;;;;8.13;2.50;;;;;9.30;102148.00;;;;10090287;29;20200;-79
2023/02/02 16:26:47;;;;;;;4.23;2.33;;;;;9.20;102154.00;;;;10097962;29;20246;-80
2023/02/02 16:31:49;;;;;;;4.67;2.40;;;;;9.20;102162.00;;;;10097643;29;20311;-79
2023/02/02 16:37:26;;;;;;;6.70;2.80;;;;;9.30;102155.00;;;;10098046;29;20250;-80
2023/02/02 16:42:30;;;;;;;7.63;3.67;;;;;9.30;102166.00;;;;10114488;29;20211;-79
2023/02/02 16:47:34;;;;;;;4.67;2.23;;;;;9.30;102177.00;;;;10129528;29;20207;-80
2023/02/02 16:52:57;;;;;;;5.67;2.73;;;;;9.30;102176.00;;;;10137299;29;20654;-80
2023/02/02 16:58:00;;;;;;;5.17;2.80;;;;;9.20;102178.00;;;;10107602;29;20429;-80
2023/02/02 17:03:07;;;;;;;4.77;2.67;;;;;9.20;102181.00;;;;10097850;29;20206;-81
2023/02/02 17:08:09;;;;;;;10.53;3.47;;;;;9.20;102182.00;;;;10098232;29;20243;-80
2023/02/02 17:13:30;;;;;;;11.87;3.80;;;;;9.20;102195.00;;;;10105859;29;20223;-80
2023/02/02 17:18:32;;;;;;;6.93;3.30;;;;;9.20;102184.00;;;;10093437;29;20297;-80
2023/02/02 17:23:35;;;;;;;9.13;3.10;;;;;9.20;102185.00;;;;10089914;29;20682;-80
2023/02/02 17:28:39;;;;;;;6.33;2.63;;;;;9.20;102188.00;;;;10105646;29;20191;-80
2023/02/02 17:33:44;;;;;;;11.93;6.00;;;;;9.20;102196.00;;;;10105192;29;20227;-80
2023/02/02 17:38:46;;;;;;;5.97;3.57;;;;;9.00;102187.00;;;;10119483;29;20203;-80
2023/02/02 17:43:48;;;;;;;5.43;3.20;;;;;8.90;102187.00;;;;10119963;29;20195;-80
2023/02/02 17:48:50;;;;;;;7.13;3.60;;;;;8.70;102201.00;;;;10105784;29;20199;-80
2023/02/02 17:53:54;;;;;;;9.60;3.57;;;;;8.60;102201.00;;;;10089600;29;20219;-80
2023/02/02 17:58:56;;;;;;;8.13;5.03;;;;;8.50;102199.00;;;;10104657;29;20203;-80
2023/02/02 18:03:58;;;;;;;7.30;3.43;;;;;8.50;102207.00;;;;10115225;29;20203;-79
2023/02/02 18:09:01;;;;;;;8.90;3.93;;;;;8.40;102199.00;;;;10135302;29;20239;-79
2023/02/02 18:14:03;;;;;;;10.40;4.00;;;;;8.30;102199.00;;;;10103909;29;20223;-80
2023/02/02 18:19:05;;;;;;;10.87;4.03;;;;;8.40;102187.00;;;;10103764;29;20196;-80
2023/02/02 18:24:13;;;;;;;11.13;4.83;;;;;8.50;102183.00;;;;10102977;29;20679;-79
2023/02/02 18:29:16;;;;;;;7.97;4.00;;;;;8.50;102187.00;;;;10117108;29;20227;-80
2023/02/02 18:34:20;;;;;;;4.27;3.30;;;;;8.60;102185.00;;;;10117748;29;20219;-80
2023/02/02 18:39:22;;;;;;;8.50;3.90;;;;;8.70;102180.00;;;;10102135;29;20206;-80
2023/02/02 18:44:26;;;;;;;10.23;5.83;;;;;8.70;102184.00;;;;10101700;29;20212;-80
2023/02/02 18:49:28;;;;;;;7.97;3.77;;;;;8.80;102183.00;;;;10116745;29;20667;-80
2023/02/02 18:54:32;;;;;;;10.23;3.80;;;;;8.80;102190.00;;;;10086172;29;20235;-80
2023/02/02 18:59:34;;;;;;;11.33;3.90;;;;;8.80;102196.00;;;;10116362;29;20640;-80
2023/02/02 19:04:36;;;;;;;7.13;3.60;;;;;8.90;102191.00;;;;10116595;29;20199;-80
2023/02/02 19:09:38;;;;;;;8.97;3.93;;;;;8.90;102190.00;;;;10099152;29;20234;-80
2023/02/02 19:14:42;;;;;;;10.53;4.47;;;;;8.90;102189.00;;;;10093542;29;20215;-80
2023/02/02 19:19:49;;;;;;;11.20;5.10;;;;;8.90;102200.00;;;;10105390;29;20234;-79
2023/02/02 19:24:51;;;;;;;14.93;4.43;;;;;9.00;102201.00;;;;10084406;29;20199;-80
2023/02/02 19:29:58;;;;;;;5.50;3.53;;;;;9.00;102211.00;;;;10084330;29;20196;-79
2023/02/02 19:35:02;;;;;;;8.57;3.93;;;;;9.00;102203.00;;;;10100725;29;20226;-79
2023/02/02 19:40:07;;;;;;;12.60;4.20;;;;;9.00;102202.00;;;;10084255;29;20298;-81
2023/02/02 19:45:20;;;;;;;9.63;4.87;;;;;9.00;102192.00;;;;10130279;29;20216;-79
2023/02/02 19:50:24;;;;;;;9.40;4.73;;;;;9.00;102199.00;;;;10100584;29;20657;-80
2023/02/02 19:55:33;;;;;;;7.13;3.73;;;;;9.00;102186.00;;;;10116424;29;20624;-80
2023/02/02 20:00:37;;;;;;;13.70;4.70;;;;;9.00;102180.00;;;;10099238;29;20613;-79
2023/02/02 20:05:43;;;;;;;16.47;6.00;;;;;8.90;102181.00;;;;10113964;29;20203;-79
2023/02/02 20:10:45;;;;;;;11.60;4.10;;;;;8.90;102173.00;;;;10077706;29;20216;-79
2023/02/02 20:15:50;;;;;;;11.77;3.70;;;;;9.00;102181.00;;;;10084264;29;20231;-80
2023/02/02 20:20:54;;;;;;;11.73;3.60;;;;;9.00;102200.00;;;;10092358;29;20195;-80
2023/02/02 20:25:58;;;;;;;9.07;3.60;;;;;9.00;102204.00;;;;10082031;29;20219;-79
2023/02/02 20:31:02;;;;;;;10.73;3.40;;;;;9.00;102191.00;;;;10096385;29;20199;-80
2023/02/02 20:36:25;;;;;;;10.40;3.33;;;;;9.00;102198.00;;;;10127959;29;20223;-80
2023/02/02 20:41:27;;;;;;;8.77;3.50;;;;;9.10;102199.00;;;;10080967;29;20199;-80
2023/02/02 20:46:29;;;;;;;5.70;2.70;;;;;9.00;102200.00;;;;10095432;29;20211;-80
2023/02/02 20:51:31;;;;;;;8.20;3.63;;;;;9.10;102203.00;;;;10082089;29;20663;-80
2023/02/02 20:56:33;;;;;;;13.97;3.47;;;;;9.10;102193.00;;;;10094992;29;20702;-79
2023/02/02 21:01:35;;;;;;;12.10;3.60;;;;;9.10;102207.00;;;;10127629;29;20384;-80
2023/02/02 21:06:41;;;;;;;4.37;2.43;;;;;9.10;102218.00;;;;10095979;29;20239;-80
2023/02/02 21:11:43;;;;;;;7.37;2.67;;;;;9.10;102226.00;;;;10096618;29;20206;-80
2023/02/02 21:16:45;;;;;;;4.07;2.30;;;;;9.10;102230.00;;;;10086161;29;20234;-79
2023/02/02 21:21:49;;;;;;;11.93;3.70;;;;;9.10;102230.00;;;;10069243;29;20719;-80
2023/02/02 21:26:52;;;;;;;8.27;2.77;;;;;9.10;102239.00;;;;10097217;29;20230;-80
2023/02/02 21:31:58;;;;;;;9.07;3.03;;;;;9.10;102240.00;;;;10096795;29;20231;-80
2023/02/02 21:37:00;;;;;;;11.00;3.47;;;;;9.10;102243.00;;;;10112069;29;20254;-80
2023/02/02 21:42:10;;;;;;;5.77;2.40;;;;;9.20;102246.00;;;;10110894;29;20211;-79
2023/02/02 21:47:28;;;;;;;9.50;2.90;;;;;9.20;102227.00;;;;10101528;29;20215;-80
2023/02/02 21:52:32;;;;;;;7.83;2.83;;;;;9.20;102231.00;;;;10091370;29;20286;-80
2023/02/02 21:57:35;;;;;;;8.43;2.90;;;;;9.20;102230.00;;;;10114994;29;20236;-80
2023/02/02 22:02:42;;;;;;;9.50;3.37;;;;;9.20;102235.00;;;;10113307;29;20722;-80
2023/02/02 22:07:49;;;;;;;5.67;2.47;;;;;9.20;102231.00;;;;10078926;29;20393;-80
2023/02/02 22:12:51;;;;;;;9.07;2.73;;;;;9.20;102241.00;;;;10078701;29;20744;-80
2023/02/02 22:17:53;;;;;;;7.53;2.70;;;;;9.20;102237.00;;;;10122757;29;20306;-79
2023/02/02 22:22:54;;;;;;;4.83;2.47;;;;;9.20;102236.00;;;;10100722;29;20306;-80
2023/02/02 22:28:00;;;;;;;8.80;2.77;;;;;9.20;102236.00;;;;10116932;29;20204;-80
2023/02/02 22:33:04;;;;;;;8.20;2.70;;;;;9.20;102249.00;;;;10103577;29;20227;-81
2023/02/02 22:38:07;;;;;;;9.23;3.13;;;;;9.20;102247.00;;;;10116480;29;20192;-80
2023/02/02 22:43:12;;;;;;;7.37;2.97;;;;;9.30;102260.00;;;;10100190;29;20230;-80
2023/02/02 22:48:14;;;;;;;4.77;2.30;;;;;9.30;102247.00;;;;10116090;29;20209;-80
2023/02/02 22:53:19;;;;;;;5.63;3.47;;;;;9.30;102241.00;;;;10100111;29;20235;-80
2023/02/02 22:58:23;;;;;;;10.07;2.73;;;;;9.20;102246.00;;;;10130920;29;20200;-80
2023/02/02 23:03:25;;;;;;;6.80;2.30;;;;;9.30;102255.00;;;;10088432;29;20658;-80
2023/02/02 23:08:27;;;;;;;10.40;3.03;;;;;9.30;102265.00;;;;10115728;29;20216;-80
2023/02/02 23:13:30;;;;;;;9.17;2.43;;;;;9.30;102240.00;;;;10101523;29;20245;-80
2023/02/02 23:18:32;;;;;;;11.57;2.63;;;;;9.30;102232.00;;;;10170023;29;20203;-80
2023/02/02 23:23:33;;;;;;;11.20;3.13;;;;;9.20;102218.00;;;;10124303;29;20216;-80
2023/02/02 23:28:35;;;;;;;4.30;2.50;;;;;9.20;102216.00;;;;10099817;29;20200;-81
2023/02/02 23:33:37;;;;;;;6.87;2.87;;;;;9.30;102218.00;;;;10098915;29;20374;-80
2023/02/02 23:38:39;;;;;;;9.93;3.10;;;;;9.30;102202.00;;;;10068845;29;20199;-79
2023/02/02 23:43:41;;;;;;;7.50;2.83;;;;;9.30;102210.00;;;;10098234;29;20226;-80
2023/02/02 23:48:44;;;;;;;6.47;3.23;;;;;9.30;102207.00;;;;10083738;29;20883;-80
2023/02/02 23:53:46;;;;;;;8.10;3.27;;;;;9.30;102193.00;;;;10068835;29;20228;-81
2023/02/02 23:58:48;;;;;;;7.97;3.20;;;;;9.30;102164.00;;;;10100372;29;20233;-81
